createdAt,value
2022-11-22T00:00:25.362Z,9.80
2022-11-22T00:02:52.169Z,10.00
2022-11-22T00:05:18.979Z,11.02
2022-11-22T00:07:45.953Z,11.77
2022-11-22T00:12:41.123Z,12.10
2022-11-22T00:15:08.589Z,11.48
2022-11-22T00:17:35.904Z,11.90
2022-11-22T00:20:02.905Z,11.77
2022-11-22T00:24:57.617Z,11.52
2022-11-22T00:27:24.531Z,11.82
2022-11-22T00:29:51.426Z,11.85
2022-11-22T00:32:18.190Z,11.23
2022-11-22T00:34:44.965Z,11.32
2022-11-22T00:37:11.653Z,9.68
2022-11-22T00:39:38.491Z,8.20
2022-11-22T00:42:05.260Z,7.93
2022-11-22T00:44:32.048Z,6.65
2022-11-22T00:46:58.818Z,6.60
2022-11-22T00:49:25.542Z,6.70
2022-11-22T00:51:52.317Z,5.95
2022-11-22T00:54:19.128Z,5.60
2022-11-22T00:56:45.977Z,6.13
2022-11-22T00:59:12.758Z,6.18
2022-11-22T01:01:39.609Z,5.97
2022-11-22T01:04:06.506Z,5.95
2022-11-22T01:06:33.639Z,5.47
2022-11-22T01:09:01.288Z,6.25
2022-11-22T01:11:28.265Z,5.78
2022-11-22T01:16:21.805Z,5.40
2022-11-22T01:18:48.627Z,5.25
2022-11-22T01:21:15.362Z,4.75
2022-11-22T01:23:42.201Z,4.85
2022-11-22T01:26:09.103Z,5.05
2022-11-22T01:28:36.486Z,4.55
2022-11-22T01:31:03.495Z,4.38
2022-11-22T01:35:58.212Z,3.28
2022-11-22T01:38:25.383Z,2.42
2022-11-22T01:40:52.905Z,2.85
2022-11-22T01:43:25.461Z,2.50
2022-11-22T01:45:57.158Z,1.95
2022-11-22T01:48:48.665Z,1.70
2022-11-22T01:51:29.886Z,1.40
2022-11-22T01:54:00.196Z,1.30
2022-11-22T01:56:28.234Z,1.83
2022-11-22T01:58:59.999Z,1.20
2022-11-22T02:01:27.880Z,1.08
2022-11-22T02:03:58.884Z,0.90
2022-11-22T02:06:34.419Z,1.05
2022-11-22T02:09:07.557Z,0.90
2022-11-22T02:11:38.103Z,1.23
2022-11-22T02:14:06.952Z,1.02
2022-11-22T02:16:35.829Z,0.90
2022-11-22T02:19:03.390Z,0.90
2022-11-22T02:21:30.197Z,0.98
2022-11-22T02:24:07.751Z,0.90
2022-11-22T02:26:34.584Z,0.80
2022-11-22T02:29:07.814Z,0.93
2022-11-22T02:31:40.516Z,0.93
2022-11-22T02:34:07.480Z,0.90
2022-11-22T02:39:05.641Z,1.95
2022-11-22T02:41:32.884Z,1.10
2022-11-22T02:43:59.864Z,1.02
2022-11-22T02:48:53.376Z,0.90
2022-11-22T02:51:20.393Z,0.98
2022-11-22T02:56:15.491Z,1.00
2022-11-22T02:58:43.584Z,1.08
2022-11-22T03:01:13.826Z,0.95
2022-11-22T03:03:40.653Z,1.45
2022-11-22T03:06:07.481Z,1.10
2022-11-22T03:08:34.255Z,1.42
2022-11-22T03:11:01.039Z,1.00
2022-11-22T03:13:27.898Z,1.17
2022-11-22T03:15:54.731Z,1.17
2022-11-22T03:18:21.623Z,1.00
2022-11-22T03:23:15.246Z,1.13
2022-11-22T03:25:42.097Z,1.20
2022-11-22T03:28:08.894Z,1.25
2022-11-22T03:30:40.336Z,1.10
2022-11-22T03:33:07.238Z,1.17
2022-11-22T03:35:34.071Z,1.20
2022-11-22T03:38:00.845Z,1.15
2022-11-22T03:40:27.656Z,1.08
2022-11-22T03:42:54.382Z,1.10
2022-11-22T03:45:21.163Z,1.02
2022-11-22T03:47:47.854Z,1.08
2022-11-22T03:50:15.080Z,0.90
2022-11-22T03:52:41.907Z,1.20
2022-11-22T03:55:09.041Z,0.98
2022-11-22T03:57:35.806Z,1.15
2022-11-22T04:00:02.955Z,1.08
2022-11-22T04:02:29.623Z,0.90
2022-11-22T04:04:56.936Z,1.10
2022-11-22T04:07:23.746Z,0.93
2022-11-22T04:09:50.540Z,1.48
2022-11-22T04:12:17.300Z,0.82
2022-11-22T04:15:02.667Z,1.08
2022-11-22T04:17:41.675Z,0.95
2022-11-22T04:20:35.038Z,1.30
2022-11-22T04:23:07.053Z,1.15
2022-11-22T04:25:35.492Z,1.30
2022-11-22T04:28:02.343Z,1.13
2022-11-22T04:30:47.957Z,1.33
2022-11-22T04:33:15.760Z,1.30
2022-11-22T04:35:44.073Z,1.23
2022-11-22T04:38:12.156Z,1.30
2022-11-22T04:40:39.871Z,1.25
2022-11-22T04:43:26.341Z,1.08
2022-11-22T04:45:53.098Z,1.40
2022-11-22T04:48:20.071Z,1.02
2022-11-22T04:51:05.176Z,1.13
2022-11-22T04:53:31.982Z,0.80
2022-11-22T04:55:59.098Z,1.00
2022-11-22T04:58:25.901Z,0.90
2022-11-22T05:00:53.055Z,0.75
2022-11-22T05:03:20.280Z,0.82
2022-11-22T05:05:47.440Z,0.60
2022-11-22T05:08:14.544Z,0.70
2022-11-22T05:10:57.076Z,0.80
2022-11-22T05:13:44.575Z,0.80
2022-11-22T05:16:13.815Z,0.75
2022-11-22T05:18:41.251Z,0.68
2022-11-22T05:21:15.115Z,0.80
2022-11-22T05:23:57.202Z,0.70
2022-11-22T05:26:29.314Z,0.80
2022-11-22T05:28:58.303Z,0.85
2022-11-22T05:31:27.641Z,0.70
2022-11-22T05:33:56.508Z,0.70
2022-11-22T05:36:24.123Z,0.70
2022-11-22T05:38:51.559Z,0.40
2022-11-22T05:41:19.174Z,0.70
2022-11-22T05:43:46.009Z,0.57
2022-11-22T05:46:19.609Z,0.55
2022-11-22T05:48:50.525Z,0.60
2022-11-22T05:51:21.100Z,0.60
2022-11-22T05:53:48.344Z,0.50
2022-11-22T05:56:17.546Z,0.40
2022-11-22T05:58:44.821Z,0.50
2022-11-22T06:01:17.426Z,0.43
2022-11-22T06:03:44.131Z,0.52
2022-11-22T06:06:11.521Z,0.40
2022-11-22T06:08:41.178Z,0.38
2022-11-22T06:11:13.011Z,0.40
2022-11-22T06:13:42.152Z,0.47
2022-11-22T06:16:09.332Z,0.50
2022-11-22T06:18:36.400Z,0.40
2022-11-22T06:23:34.993Z,0.40
2022-11-22T06:26:07.894Z,0.40
2022-11-22T06:28:36.851Z,0.50
2022-11-22T06:31:06.770Z,0.50
2022-11-22T06:33:33.889Z,0.50
2022-11-22T06:36:06.160Z,0.70
2022-11-22T06:38:33.299Z,0.60
2022-11-22T06:41:04.077Z,0.63
2022-11-22T06:43:32.121Z,0.55
2022-11-22T06:45:59.745Z,0.80
2022-11-22T06:48:28.828Z,0.68
2022-11-22T06:51:07.064Z,0.60
2022-11-22T06:53:51.009Z,0.60
2022-11-22T06:56:20.681Z,0.70
2022-11-22T06:58:49.180Z,0.70
2022-11-22T07:01:21.379Z,0.90
2022-11-22T07:03:49.284Z,1.05
2022-11-22T07:06:17.821Z,0.70
2022-11-22T07:08:45.603Z,0.80
2022-11-22T07:11:18.173Z,0.98
2022-11-22T07:14:00.515Z,1.00
2022-11-22T07:16:32.218Z,0.80
2022-11-22T07:19:00.571Z,0.88
2022-11-22T07:21:27.621Z,0.73
2022-11-22T07:26:23.670Z,1.10
2022-11-22T07:28:50.473Z,1.00
2022-11-22T07:31:18.019Z,0.82
2022-11-22T07:33:45.262Z,1.23
2022-11-22T07:36:20.620Z,1.10
2022-11-22T07:38:48.553Z,1.20
2022-11-22T07:41:16.538Z,1.38
2022-11-22T07:43:43.484Z,1.20
2022-11-22T07:46:33.033Z,1.42
2022-11-22T07:49:01.455Z,2.35
2022-11-22T07:51:28.646Z,1.80
2022-11-22T07:53:56.464Z,1.85
2022-11-22T07:56:23.939Z,2.03
2022-11-22T07:58:50.852Z,1.90
2022-11-22T08:01:19.106Z,2.20
2022-11-22T08:03:46.540Z,1.83
2022-11-22T08:06:14.155Z,1.55
2022-11-22T08:08:41.071Z,1.00
2022-11-22T08:11:08.980Z,1.30
2022-11-22T08:13:36.478Z,1.60
2022-11-22T08:16:09.649Z,1.30
2022-11-22T08:18:37.937Z,1.38
2022-11-22T08:21:11.622Z,1.25
2022-11-22T08:23:39.274Z,1.52
2022-11-22T08:26:07.730Z,1.77
2022-11-22T08:28:34.963Z,1.35
2022-11-22T08:31:08.673Z,1.42
2022-11-22T08:33:35.513Z,0.98
2022-11-22T08:36:02.901Z,1.00
2022-11-22T08:38:30.131Z,0.60
2022-11-22T08:40:56.951Z,0.93
2022-11-22T08:43:24.078Z,0.50
2022-11-22T08:45:57.033Z,0.50
2022-11-22T08:48:25.521Z,0.50
2022-11-22T08:50:54.153Z,0.50
2022-11-22T08:53:21.412Z,0.40
2022-11-22T08:55:48.233Z,0.68
2022-11-22T08:58:15.219Z,0.30
2022-11-22T09:00:42.296Z,0.40
2022-11-22T09:03:09.321Z,0.52
2022-11-22T09:10:46.326Z,0.52
2022-11-22T09:13:13.044Z,0.30
2022-11-22T09:15:40.005Z,0.30
2022-11-22T09:18:06.937Z,0.32
2022-11-22T09:20:33.715Z,0.20
2022-11-22T09:23:01.718Z,0.50
2022-11-22T09:25:28.581Z,0.40
2022-11-22T09:27:55.361Z,0.30
2022-11-22T09:30:22.165Z,0.80
2022-11-22T09:32:48.918Z,0.52
2022-11-22T09:35:17.198Z,0.40
2022-11-22T09:37:43.952Z,0.30
2022-11-22T09:40:11.223Z,0.50
2022-11-22T09:43:07.131Z,0.40
2022-11-22T09:45:55.042Z,0.40
2022-11-22T09:48:40.459Z,0.50
2022-11-22T09:51:12.482Z,0.20
2022-11-22T09:53:54.264Z,0.20
2022-11-22T09:56:25.438Z,0.50
2022-11-22T09:58:57.310Z,0.50
2022-11-22T10:01:27.522Z,0.45
2022-11-22T10:04:14.704Z,0.45
2022-11-22T10:06:45.587Z,0.40
2022-11-22T10:09:36.974Z,0.80
2022-11-22T10:12:13.679Z,0.50
2022-11-22T10:14:59.215Z,0.50
2022-11-22T10:17:44.619Z,0.40
2022-11-22T10:20:20.180Z,0.30
2022-11-22T10:22:48.416Z,0.40
2022-11-22T10:25:21.895Z,0.60
2022-11-22T10:28:00.367Z,0.50
2022-11-22T10:30:38.735Z,0.80
2022-11-22T10:33:25.626Z,0.82
2022-11-22T10:36:01.844Z,0.90
2022-11-22T10:38:53.317Z,0.95
2022-11-22T10:41:39.633Z,1.10
2022-11-22T10:44:18.459Z,1.52
2022-11-22T10:47:03.966Z,1.30
2022-11-22T10:49:55.511Z,1.50
2022-11-22T10:52:58.334Z,1.40
2022-11-22T10:55:55.799Z,1.52
2022-11-22T10:58:47.690Z,1.13
2022-11-22T11:01:44.435Z,1.40
2022-11-22T11:04:15.183Z,1.20
2022-11-22T11:07:11.552Z,1.70
2022-11-22T11:12:42.209Z,0.90
2022-11-22T11:15:18.646Z,0.98
2022-11-22T11:17:49.232Z,1.08
2022-11-22T11:20:37.699Z,1.27
2022-11-22T11:23:15.117Z,3.30
2022-11-22T11:25:44.879Z,1.40
2022-11-22T11:28:23.683Z,1.30
2022-11-22T11:31:06.707Z,1.25
2022-11-22T11:33:37.952Z,1.42
2022-11-22T11:36:20.989Z,1.15
2022-11-22T11:38:56.236Z,1.13
2022-11-22T11:41:32.617Z,1.45
2022-11-22T11:44:04.581Z,1.45
2022-11-22T11:46:40.587Z,1.52
2022-11-22T11:49:11.307Z,1.20
2022-11-22T11:51:40.981Z,0.90
2022-11-22T11:54:39.708Z,1.00
2022-11-22T11:59:37.597Z,2.10
2022-11-22T12:02:13.080Z,1.20
2022-11-22T12:05:11.310Z,0.98
2022-11-22T12:07:46.319Z,1.10
2022-11-22T12:10:32.411Z,0.98
2022-11-22T12:16:08.614Z,1.02
2022-11-22T12:18:38.232Z,0.85
2022-11-22T12:21:26.231Z,0.93
2022-11-22T12:24:41.292Z,0.80
2022-11-22T12:27:00.682Z,1.00
2022-11-22T12:29:27.990Z,1.35
2022-11-22T12:32:12.385Z,1.45
2022-11-22T12:35:03.427Z,1.60
2022-11-22T12:37:39.287Z,1.35
2022-11-22T12:40:17.695Z,1.23
2022-11-22T12:42:49.894Z,1.60
2022-11-22T12:45:31.316Z,1.50
2022-11-22T12:48:03.392Z,1.20
2022-11-22T12:50:41.916Z,1.40
2022-11-22T12:53:34.676Z,0.93
2022-11-22T12:56:10.719Z,1.02
2022-11-22T12:59:15.999Z,1.10
2022-11-22T13:01:52.587Z,1.70
2022-11-22T13:04:57.495Z,1.88
2022-11-22T13:07:24.223Z,1.50
2022-11-22T13:10:01.808Z,1.20
2022-11-22T13:12:36.201Z,1.08
2022-11-22T13:15:04.641Z,1.02
2022-11-22T13:17:35.038Z,1.10
2022-11-22T13:20:13.313Z,1.50
2022-11-22T13:23:08.016Z,0.70
2022-11-22T13:25:43.843Z,0.80
2022-11-22T13:28:20.215Z,1.20
2022-11-22T13:31:12.162Z,0.73
2022-11-22T13:33:55.407Z,0.90
2022-11-22T13:36:28.289Z,4.43
2022-11-22T13:38:58.354Z,1.00
2022-11-22T13:41:57.209Z,0.70
2022-11-22T13:44:23.904Z,0.73
2022-11-22T13:46:57.739Z,0.85
2022-11-22T13:49:49.450Z,0.80
2022-11-22T13:52:16.288Z,1.00
2022-11-22T13:54:56.906Z,0.80
2022-11-22T13:57:40.823Z,1.13
2022-11-22T14:00:13.878Z,0.73
2022-11-22T14:02:47.495Z,0.70
2022-11-22T14:05:26.716Z,0.60
2022-11-22T14:07:56.106Z,0.73
2022-11-22T14:10:41.866Z,0.73
2022-11-22T14:13:14.708Z,0.90
2022-11-22T14:15:56.813Z,0.68
2022-11-22T14:18:42.429Z,0.80
2022-11-22T14:21:31.313Z,0.70
2022-11-22T14:24:10.251Z,0.88
2022-11-22T14:26:54.970Z,0.80
2022-11-22T14:29:40.233Z,0.77
2022-11-22T14:32:20.593Z,0.70
2022-11-22T14:35:16.864Z,0.70
2022-11-22T14:37:47.709Z,0.60
2022-11-22T14:40:32.502Z,0.55
2022-11-22T14:43:03.540Z,0.60
2022-11-22T14:45:49.849Z,0.50
2022-11-22T14:48:19.887Z,0.50
2022-11-22T14:50:59.598Z,0.50
2022-11-22T14:53:32.934Z,0.40
2022-11-22T14:56:13.622Z,0.70
2022-11-22T14:59:06.334Z,0.93
2022-11-22T15:01:44.866Z,0.80
2022-11-22T15:09:15.572Z,0.80
2022-11-22T15:09:19.646Z,0.90
2022-11-22T15:10:58.847Z,1.00
2022-11-22T15:14:08.761Z,0.90
2022-11-22T15:59:43.056Z,0.90
2022-11-22T16:02:16.188Z,0.70
2022-11-22T16:06:08.487Z,0.93
2022-11-22T16:07:48.626Z,1.17
2022-11-22T16:10:33.131Z,1.35
2022-11-22T16:13:12.943Z,1.40
2022-11-22T16:15:40.189Z,1.20
2022-11-22T16:18:22.408Z,1.50
2022-11-22T16:21:07.160Z,1.70
2022-11-22T16:23:35.311Z,1.65
2022-11-22T16:26:29.497Z,1.35
2022-11-22T16:29:43.804Z,1.98
2022-11-22T16:32:13.252Z,3.10
2022-11-22T16:34:43.306Z,3.03
2022-11-22T16:37:34.661Z,3.33
2022-11-22T16:40:06.053Z,4.13
2022-11-22T16:42:33.459Z,3.60
2022-11-22T16:45:03.968Z,3.65
2022-11-22T16:47:31.470Z,3.28
2022-11-22T16:49:58.283Z,3.60
2022-11-22T16:52:25.391Z,4.00
2022-11-22T16:54:52.204Z,3.28
2022-11-22T16:57:19.007Z,3.95
2022-11-22T16:59:45.939Z,3.60
2022-11-22T17:02:15.564Z,3.95
2022-11-22T17:04:45.487Z,4.10
2022-11-22T17:07:13.331Z,4.00
2022-11-22T17:09:40.231Z,4.40
2022-11-22T17:12:14.434Z,3.92
2022-11-22T17:14:41.222Z,4.28
2022-11-22T17:17:11.818Z,4.10
2022-11-22T17:19:52.628Z,4.30
2022-11-22T17:22:20.293Z,4.38
2022-11-22T17:24:47.208Z,4.63
2022-11-22T17:27:14.261Z,4.15
2022-11-22T17:32:23.628Z,4.38
2022-11-22T17:34:50.467Z,4.40
2022-11-22T17:37:17.303Z,4.75
2022-11-22T17:39:44.230Z,4.55
2022-11-22T17:42:12.132Z,4.28
2022-11-22T17:44:38.986Z,4.28
2022-11-22T17:47:05.735Z,3.90
2022-11-22T17:49:32.866Z,3.92
2022-11-22T17:51:59.904Z,4.28
2022-11-22T17:54:26.596Z,4.43
2022-11-22T17:56:53.419Z,4.20
2022-11-22T17:59:20.240Z,4.25
2022-11-22T18:01:47.190Z,4.60
2022-11-22T18:06:41.547Z,4.95
2022-11-22T18:09:08.515Z,4.20
2022-11-22T18:14:02.035Z,4.93
2022-11-22T18:16:29.953Z,4.32
2022-11-22T18:18:58.078Z,4.53
2022-11-22T18:21:26.580Z,4.40
2022-11-22T18:23:53.412Z,4.38
2022-11-22T18:31:55.669Z,3.97
2022-11-22T18:34:23.213Z,3.67
2022-11-22T18:36:55.777Z,3.72
2022-11-22T18:39:26.289Z,3.70
2022-11-22T18:44:20.069Z,3.00
2022-11-22T18:46:47.307Z,3.60
2022-11-22T18:49:14.207Z,3.17
2022-11-22T18:51:41.193Z,2.80
2022-11-22T18:56:39.960Z,3.60
2022-11-22T18:59:08.117Z,3.40
2022-11-22T19:01:35.274Z,3.60
2022-11-22T19:04:03.172Z,3.33
2022-11-22T19:06:30.955Z,3.35
2022-11-22T19:08:58.157Z,3.10
2022-11-22T19:11:25.661Z,4.03
2022-11-22T19:13:53.047Z,3.53
2022-11-22T19:16:22.098Z,4.50
2022-11-22T19:18:49.700Z,4.82
2022-11-22T19:21:22.567Z,4.63
2022-11-22T19:23:49.832Z,4.32
2022-11-22T19:26:22.592Z,3.90
2022-11-22T19:28:52.113Z,4.40
2022-11-22T19:31:21.160Z,3.83
2022-11-22T19:33:48.755Z,4.32
2022-11-22T19:36:18.272Z,3.92
2022-11-22T19:38:45.668Z,3.25
2022-11-22T19:41:15.248Z,4.18
2022-11-22T19:43:42.045Z,4.40
2022-11-22T19:46:08.863Z,4.47
2022-11-22T19:48:35.958Z,4.20
2022-11-22T19:51:11.357Z,4.45
2022-11-22T19:53:38.661Z,4.32
2022-11-22T19:56:08.041Z,3.97
2022-11-22T19:58:34.797Z,4.32
2022-11-22T20:01:06.683Z,3.90
2022-11-22T20:03:37.965Z,4.50
2022-11-22T20:06:06.315Z,4.57
2022-11-22T20:08:33.269Z,4.95
2022-11-22T20:13:33.458Z,4.47
2022-11-22T20:16:24.766Z,27.38
2022-11-22T20:19:05.285Z,4.30
2022-11-22T20:21:33.638Z,4.32
2022-11-22T20:24:01.482Z,4.75
2022-11-22T20:26:29.494Z,4.50
2022-11-22T20:29:07.834Z,4.40
2022-11-22T20:31:36.926Z,4.18
2022-11-22T20:34:03.869Z,4.60
2022-11-22T20:38:59.056Z,4.88
2022-11-22T20:41:28.433Z,5.05
2022-11-22T20:43:55.529Z,4.88
2022-11-22T20:46:25.061Z,5.05
2022-11-22T20:48:55.334Z,5.35
2022-11-22T20:51:24.875Z,5.03
2022-11-22T20:53:52.071Z,4.95
2022-11-22T20:56:19.345Z,4.63
2022-11-22T20:58:46.385Z,4.47
2022-11-22T21:03:42.525Z,4.63
2022-11-22T21:06:11.812Z,4.95
2022-11-22T21:08:38.702Z,4.85
2022-11-22T21:11:12.832Z,4.55
2022-11-22T21:13:40.106Z,4.60
2022-11-22T21:16:22.729Z,4.85
2022-11-22T21:19:00.338Z,4.78
2022-11-22T21:21:28.326Z,4.75
2022-11-22T21:23:57.327Z,4.70
2022-11-22T21:26:25.218Z,4.70
2022-11-22T21:28:53.072Z,4.75
2022-11-22T21:31:21.349Z,5.22
2022-11-22T21:33:48.553Z,5.60
2022-11-22T21:36:15.504Z,5.38
2022-11-22T21:44:09.255Z,5.38
2022-11-22T21:46:36.164Z,5.82
2022-11-22T21:49:03.095Z,5.65
2022-11-22T21:51:30.049Z,5.65
2022-11-22T21:54:00.757Z,5.63
2022-11-22T21:56:28.074Z,5.75
2022-11-22T21:58:54.915Z,5.88
2022-11-22T22:01:22.406Z,5.10
2022-11-22T22:03:49.219Z,5.47
2022-11-22T22:06:16.127Z,5.75
2022-11-22T22:08:42.988Z,5.75
2022-11-22T22:11:09.896Z,5.40
2022-11-22T22:13:36.691Z,5.10
2022-11-22T22:16:06.727Z,5.43
2022-11-22T22:18:35.863Z,4.93
2022-11-22T22:21:05.264Z,5.35
2022-11-22T22:23:33.764Z,5.28
2022-11-22T22:26:02.139Z,4.75
2022-11-22T22:28:32.759Z,5.28
2022-11-22T22:31:09.966Z,4.97
2022-11-22T22:33:39.634Z,4.65
2022-11-22T22:36:07.859Z,4.63
2022-11-22T22:38:35.147Z,4.63
2022-11-22T22:41:04.276Z,4.60
2022-11-22T22:43:42.562Z,5.00
2022-11-22T22:46:15.104Z,4.90
2022-11-22T22:48:42.589Z,4.45
2022-11-22T22:51:12.847Z,17.20
2022-11-22T22:53:39.973Z,4.68
2022-11-22T22:56:07.822Z,4.45
2022-11-22T22:58:35.179Z,4.45
2022-11-22T23:01:22.370Z,4.57
2022-11-22T23:03:50.705Z,4.25
2022-11-22T23:06:18.165Z,4.30
2022-11-22T23:08:47.504Z,4.00
2022-11-22T23:11:16.489Z,4.70
2022-11-22T23:13:43.576Z,4.43
2022-11-22T23:18:41.124Z,3.78
2022-11-22T23:21:11.067Z,3.38
2022-11-22T23:23:38.459Z,3.42
2022-11-22T23:26:09.906Z,3.80
2022-11-22T23:28:37.098Z,3.72
2022-11-22T23:31:09.969Z,3.90
2022-11-22T23:33:37.152Z,3.10
2022-11-22T23:36:05.359Z,3.10
2022-11-22T23:38:32.664Z,3.60
2022-11-22T23:40:59.618Z,2.83
2022-11-22T23:45:53.390Z,3.20
2022-11-22T23:50:46.949Z,3.05
2022-11-22T23:53:13.705Z,3.13
2022-11-22T23:55:40.542Z,3.10
2022-11-22T23:58:07.306Z,3.15
